WZZ9007 LYBE-LROP
Flight info
| Callsign | WZZ9007 |
|---|---|
| Flight time | 0h 47m |
| Altitude | 35000 |
| Route | DONIV L5 VELIP DCT TOSVI |
| Aircraft | A320/M-SDE3FGHIRWY/LB1 |
Departure
| Time | 2026-05-05 14:08 |
|---|---|
| Airport | Belgrade Nikola Tesla Airport (LYBE) |
Arrival
| Time | 2026-05-05 14:56 |
|---|---|
| Airport | Bucharest Henri Coandă International Airport (LROP) |
| Time | Latitude | Longitude | Altitude | Speed | Heading |
|---|---|---|---|---|---|
| 2026-05-05 13:52 | 44.82056 | 20.29373 | 344 ft | 0 kts | 302° |
| 2026-05-05 14:00 | 44.82048 | 20.29390 | 342 ft | 2 kts | 301° |
| 2026-05-05 14:00 | 44.82040 | 20.29408 | 342 ft | 2 kts | 309° |
| 2026-05-05 14:01 | 44.82029 | 20.29422 | 342 ft | 2 kts | 329° |
| 2026-05-05 14:01 | 44.82014 | 20.29431 | 342 ft | 2 kts | 348° |
| 2026-05-05 14:01 | 44.82000 | 20.29432 | 342 ft | 2 kts | 6° |
| 2026-05-05 14:01 | 44.81985 | 20.29427 | 342 ft | 2 kts | 24° |
| 2026-05-05 14:02 | 44.81978 | 20.29422 | 342 ft | 1 kts | 35° |
| 2026-05-05 14:02 | 44.81975 | 20.29419 | 342 ft | 0 kts | 33° |
| 2026-05-05 14:05 | 44.81982 | 20.29426 | 342 ft | 1 kts | 33° |
| 2026-05-05 14:06 | 44.81998 | 20.29440 | 342 ft | 3 kts | 32° |
| 2026-05-05 14:06 | 44.82022 | 20.29461 | 342 ft | 4 kts | 31° |
| 2026-05-05 14:06 | 44.82055 | 20.29488 | 342 ft | 6 kts | 30° |
| 2026-05-05 14:06 | 44.82133 | 20.29555 | 342 ft | 23 kts | 32° |
| 2026-05-05 14:07 | 44.82291 | 20.29691 | 342 ft | 26 kts | 30° |
| 2026-05-05 14:07 | 44.82297 | 20.29905 | 342 ft | 33 kts | 122° |
| 2026-05-05 14:07 | 44.82046 | 20.30462 | 342 ft | 99 kts | 121° |
| 2026-05-05 14:07 | 44.81571 | 20.31539 | 344 ft | 155 kts | 122° |
| 2026-05-05 14:08 | 44.80962 | 20.32945 | 603 ft | 175 kts | 122° |
| 2026-05-05 14:08 | 44.80337 | 20.34387 | 1236 ft | 173 kts | 122° |
| 2026-05-05 14:08 | 44.79713 | 20.35810 | 1862 ft | 172 kts | 122° |
| 2026-05-05 14:08 | 44.79079 | 20.37242 | 2281 ft | 178 kts | 122° |
| 2026-05-05 14:09 | 44.78399 | 20.38771 | 2564 ft | 192 kts | 122° |
| 2026-05-05 14:09 | 44.77662 | 20.40420 | 2872 ft | 206 kts | 122° |
| 2026-05-05 14:09 | 44.76872 | 20.42184 | 3181 ft | 223 kts | 122° |
| 2026-05-05 14:09 | 44.76160 | 20.44232 | 3459 ft | 245 kts | 102° |
| 2026-05-05 14:10 | 44.76033 | 20.46703 | 3851 ft | 263 kts | 89° |
| 2026-05-05 14:10 | 44.76096 | 20.49320 | 4413 ft | 274 kts | 88° |
| 2026-05-05 14:10 | 44.76149 | 20.51971 | 5173 ft | 275 kts | 89° |
| 2026-05-05 14:10 | 44.76167 | 20.54650 | 5914 ft | 277 kts | 90° |
| 2026-05-05 14:11 | 44.76156 | 20.57392 | 6601 ft | 280 kts | 91° |
| 2026-05-05 14:11 | 44.76125 | 20.60111 | 7279 ft | 284 kts | 92° |
| 2026-05-05 14:11 | 44.76082 | 20.62906 | 7969 ft | 287 kts | 92° |
| 2026-05-05 14:11 | 44.76031 | 20.65702 | 8662 ft | 290 kts | 93° |
| 2026-05-05 14:12 | 44.75977 | 20.68526 | 9344 ft | 293 kts | 93° |
| 2026-05-05 14:12 | 44.75918 | 20.71401 | 10001 ft | 296 kts | 93° |
| 2026-05-05 14:12 | 44.75858 | 20.74283 | 10631 ft | 299 kts | 93° |
| 2026-05-05 14:12 | 44.75796 | 20.77217 | 11255 ft | 302 kts | 93° |
| 2026-05-05 14:13 | 44.75732 | 20.80178 | 11894 ft | 304 kts | 93° |
| 2026-05-05 14:13 | 44.75667 | 20.83129 | 12537 ft | 306 kts | 92° |
| 2026-05-05 14:13 | 44.75602 | 20.86098 | 13199 ft | 308 kts | 92° |
| 2026-05-05 14:13 | 44.75535 | 20.89102 | 13868 ft | 309 kts | 92° |
| 2026-05-05 14:14 | 44.75467 | 20.92131 | 14521 ft | 311 kts | 92° |
| 2026-05-05 14:14 | 44.75398 | 20.95149 | 15147 ft | 314 kts | 92° |
| 2026-05-05 14:14 | 44.75327 | 20.98240 | 15769 ft | 317 kts | 92° |
| 2026-05-05 14:14 | 44.75256 | 21.01309 | 16369 ft | 319 kts | 92° |
| 2026-05-05 14:15 | 44.75181 | 21.04445 | 16953 ft | 321 kts | 92° |
| 2026-05-05 14:15 | 44.75103 | 21.07601 | 17520 ft | 324 kts | 91° |
| 2026-05-05 14:15 | 44.75025 | 21.10739 | 18082 ft | 327 kts | 91° |
| 2026-05-05 14:15 | 44.74945 | 21.13956 | 18646 ft | 330 kts | 91° |
| 2026-05-05 14:16 | 44.74927 | 21.17182 | 19163 ft | 334 kts | 88° |
| 2026-05-05 14:16 | 44.74981 | 21.20504 | 19448 ft | 345 kts | 87° |
| 2026-05-05 14:16 | 44.75050 | 21.23904 | 19712 ft | 357 kts | 87° |
| 2026-05-05 14:16 | 44.75122 | 21.27468 | 19963 ft | 368 kts | 87° |
| 2026-05-05 14:17 | 44.75190 | 21.31085 | 20180 ft | 380 kts | 87° |
| 2026-05-05 14:17 | 44.75257 | 21.34858 | 20393 ft | 390 kts | 87° |
| 2026-05-05 14:17 | 44.75323 | 21.38703 | 20613 ft | 399 kts | 87° |
| 2026-05-05 14:17 | 44.75388 | 21.42653 | 20967 ft | 404 kts | 87° |
| 2026-05-05 14:18 | 44.75451 | 21.46558 | 21383 ft | 407 kts | 87° |
| 2026-05-05 14:18 | 44.75513 | 21.50550 | 21791 ft | 409 kts | 87° |
| 2026-05-05 14:18 | 44.75574 | 21.54576 | 22181 ft | 412 kts | 87° |
| 2026-05-05 14:18 | 44.75633 | 21.58573 | 22576 ft | 415 kts | 87° |
| 2026-05-05 14:19 | 44.75692 | 21.62649 | 22989 ft | 417 kts | 86° |
| 2026-05-05 14:19 | 44.75750 | 21.66727 | 23392 ft | 420 kts | 87° |
| 2026-05-05 14:19 | 44.75808 | 21.70835 | 23810 ft | 422 kts | 87° |
| 2026-05-05 14:19 | 44.75864 | 21.74995 | 24201 ft | 425 kts | 87° |
| 2026-05-05 14:20 | 44.75919 | 21.79118 | 24530 ft | 428 kts | 87° |
| 2026-05-05 14:20 | 44.75973 | 21.83308 | 24879 ft | 430 kts | 87° |
| 2026-05-05 14:20 | 44.76026 | 21.87474 | 25223 ft | 432 kts | 86° |
| 2026-05-05 14:20 | 44.76078 | 21.91705 | 25567 ft | 435 kts | 86° |
| 2026-05-05 14:21 | 44.76129 | 21.95979 | 25911 ft | 437 kts | 86° |
| 2026-05-05 14:21 | 44.76178 | 22.00219 | 26243 ft | 439 kts | 86° |
| 2026-05-05 14:21 | 44.76226 | 22.04530 | 26570 ft | 442 kts | 86° |
| 2026-05-05 14:21 | 44.76272 | 22.08831 | 26892 ft | 444 kts | 86° |
| 2026-05-05 14:22 | 44.76317 | 22.13205 | 27209 ft | 446 kts | 86° |
| 2026-05-05 14:22 | 44.76360 | 22.17566 | 27519 ft | 448 kts | 86° |
| 2026-05-05 14:22 | 44.76402 | 22.21940 | 27826 ft | 450 kts | 86° |
| 2026-05-05 14:22 | 44.76442 | 22.26321 | 28118 ft | 453 kts | 86° |
| 2026-05-05 14:23 | 44.76481 | 22.30760 | 28399 ft | 454 kts | 86° |
| 2026-05-05 14:23 | 44.76518 | 22.35194 | 28678 ft | 456 kts | 86° |
| 2026-05-05 14:23 | 44.76556 | 22.39669 | 28956 ft | 458 kts | 86° |
| 2026-05-05 14:23 | 44.76591 | 22.44181 | 29242 ft | 459 kts | 86° |
| 2026-05-05 14:24 | 44.76624 | 22.48623 | 29580 ft | 458 kts | 86° |
| 2026-05-05 14:24 | 44.76654 | 22.53116 | 29947 ft | 457 kts | 86° |
| 2026-05-05 14:24 | 44.76683 | 22.57544 | 30300 ft | 456 kts | 86° |
| 2026-05-05 14:24 | 44.76710 | 22.62002 | 30658 ft | 456 kts | 86° |
| 2026-05-05 14:25 | 44.76736 | 22.66452 | 31019 ft | 455 kts | 86° |
| 2026-05-05 14:25 | 44.76759 | 22.70924 | 31380 ft | 455 kts | 86° |
| 2026-05-05 14:25 | 44.76781 | 22.75361 | 31738 ft | 454 kts | 86° |
| 2026-05-05 14:25 | 44.76802 | 22.79752 | 32085 ft | 453 kts | 86° |
| 2026-05-05 14:26 | 44.76820 | 22.84145 | 32425 ft | 452 kts | 86° |
| 2026-05-05 14:26 | 44.76837 | 22.88603 | 32768 ft | 452 kts | 86° |
| 2026-05-05 14:26 | 44.76852 | 22.92966 | 33100 ft | 451 kts | 86° |
| 2026-05-05 14:26 | 44.76865 | 22.97349 | 33409 ft | 451 kts | 86° |
| 2026-05-05 14:27 | 44.76877 | 23.01792 | 33687 ft | 451 kts | 86° |
| 2026-05-05 14:27 | 44.76887 | 23.06189 | 33943 ft | 452 kts | 86° |
| 2026-05-05 14:27 | 44.76896 | 23.10652 | 34200 ft | 453 kts | 86° |
| 2026-05-05 14:27 | 44.76902 | 23.15058 | 34443 ft | 454 kts | 86° |
| 2026-05-05 14:28 | 44.76907 | 23.19507 | 34663 ft | 454 kts | 86° |
| 2026-05-05 14:28 | 44.76910 | 23.23918 | 34844 ft | 455 kts | 86° |
| 2026-05-05 14:28 | 44.76911 | 23.28390 | 34980 ft | 456 kts | 86° |
| 2026-05-05 14:28 | 44.76911 | 23.32834 | 35017 ft | 456 kts | 86° |
| 2026-05-05 14:29 | 44.76905 | 23.41784 | 35024 ft | 455 kts | 86° |
| 2026-05-05 14:29 | 44.76891 | 23.50661 | 35007 ft | 455 kts | 86° |
| 2026-05-05 14:30 | 44.76871 | 23.59559 | 34976 ft | 454 kts | 86° |
| 2026-05-05 14:30 | 44.76844 | 23.68486 | 34977 ft | 454 kts | 86° |
| 2026-05-05 14:31 | 44.76810 | 23.77352 | 34987 ft | 454 kts | 86° |
| 2026-05-05 14:31 | 44.76771 | 23.85911 | 34991 ft | 454 kts | 86° |
| 2026-05-05 14:32 | 44.76725 | 23.94534 | 34999 ft | 454 kts | 86° |
| 2026-05-05 14:32 | 44.76672 | 24.03266 | 34982 ft | 452 kts | 86° |
| 2026-05-05 14:33 | 44.76642 | 24.07716 | 34621 ft | 450 kts | 86° |
| 2026-05-05 14:33 | 44.76612 | 24.12071 | 33914 ft | 454 kts | 86° |
| 2026-05-05 14:33 | 44.76582 | 24.16356 | 33158 ft | 458 kts | 87° |
| 2026-05-05 14:33 | 44.76548 | 24.20846 | 32376 ft | 460 kts | 87° |
| 2026-05-05 14:34 | 44.76510 | 24.25353 | 31507 ft | 460 kts | 87° |
| 2026-05-05 14:34 | 44.76471 | 24.29852 | 30604 ft | 461 kts | 87° |
| 2026-05-05 14:34 | 44.76430 | 24.34324 | 29732 ft | 463 kts | 87° |
| 2026-05-05 14:34 | 44.76387 | 24.38857 | 28807 ft | 464 kts | 87° |
| 2026-05-05 14:35 | 44.76344 | 24.43189 | 28004 ft | 461 kts | 87° |
| 2026-05-05 14:35 | 44.76297 | 24.47684 | 27288 ft | 455 kts | 88° |
| 2026-05-05 14:35 | 44.76249 | 24.52128 | 26572 ft | 449 kts | 88° |
| 2026-05-05 14:35 | 44.76201 | 24.56445 | 25865 ft | 444 kts | 88° |
| 2026-05-05 14:36 | 44.76152 | 24.60752 | 25124 ft | 439 kts | 88° |
| 2026-05-05 14:36 | 44.76102 | 24.65021 | 24397 ft | 433 kts | 88° |
| 2026-05-05 14:36 | 44.76051 | 24.69229 | 23680 ft | 428 kts | 89° |
| 2026-05-05 14:36 | 44.76000 | 24.73371 | 22963 ft | 426 kts | 89° |
| 2026-05-05 14:37 | 44.75947 | 24.77486 | 22360 ft | 422 kts | 89° |
| 2026-05-05 14:37 | 44.75893 | 24.81566 | 21785 ft | 418 kts | 89° |
| 2026-05-05 14:37 | 44.75837 | 24.85647 | 20695 ft | 411 kts | 88° |
| 2026-05-05 14:37 | 44.75806 | 24.87899 | 20438 ft | 405 kts | 88° |
| 2026-05-05 14:38 | 44.75752 | 24.91799 | 20122 ft | 393 kts | 88° |
| 2026-05-05 14:38 | 44.75699 | 24.95527 | 19766 ft | 386 kts | 88° |
| 2026-05-05 14:38 | 44.75645 | 24.99260 | 19320 ft | 383 kts | 88° |
| 2026-05-05 14:38 | 44.75590 | 25.02978 | 18830 ft | 380 kts | 88° |
| 2026-05-05 14:39 | 44.75494 | 25.06666 | 18443 ft | 375 kts | 90° |
| 2026-05-05 14:39 | 44.75318 | 25.10342 | 18162 ft | 374 kts | 91° |
| 2026-05-05 14:39 | 44.75132 | 25.13962 | 17886 ft | 373 kts | 91° |
| 2026-05-05 14:39 | 44.74947 | 25.17579 | 17537 ft | 373 kts | 91° |
| 2026-05-05 14:40 | 44.74765 | 25.21176 | 17059 ft | 369 kts | 90° |
| 2026-05-05 14:40 | 44.74587 | 25.24731 | 16583 ft | 366 kts | 90° |
| 2026-05-05 14:40 | 44.74411 | 25.28298 | 16100 ft | 362 kts | 90° |
| 2026-05-05 14:40 | 44.74238 | 25.31788 | 15623 ft | 360 kts | 90° |
| 2026-05-05 14:41 | 44.74067 | 25.35257 | 15127 ft | 356 kts | 90° |
| 2026-05-05 14:41 | 44.73895 | 25.38737 | 14626 ft | 353 kts | 90° |
| 2026-05-05 14:41 | 44.73725 | 25.42149 | 14134 ft | 351 kts | 90° |
| 2026-05-05 14:41 | 44.73556 | 25.45551 | 13642 ft | 349 kts | 90° |
| 2026-05-05 14:42 | 44.73385 | 25.48924 | 13154 ft | 346 kts | 90° |
| 2026-05-05 14:42 | 44.73214 | 25.52313 | 12663 ft | 344 kts | 90° |
| 2026-05-05 14:42 | 44.73048 | 25.55622 | 12183 ft | 342 kts | 90° |
| 2026-05-05 14:42 | 44.72879 | 25.58959 | 11697 ft | 339 kts | 90° |
| 2026-05-05 14:43 | 44.72711 | 25.62233 | 11218 ft | 337 kts | 90° |
| 2026-05-05 14:43 | 44.72541 | 25.65517 | 10738 ft | 337 kts | 91° |
| 2026-05-05 14:43 | 44.72371 | 25.68781 | 10263 ft | 336 kts | 91° |
| 2026-05-05 14:43 | 44.72201 | 25.72024 | 9790 ft | 333 kts | 91° |
| 2026-05-05 14:44 | 44.72031 | 25.75260 | 9312 ft | 332 kts | 91° |
| 2026-05-05 14:44 | 44.71860 | 25.78493 | 8834 ft | 330 kts | 91° |
| 2026-05-05 14:44 | 44.71690 | 25.81705 | 8363 ft | 329 kts | 91° |
| 2026-05-05 14:44 | 44.71521 | 25.84874 | 7898 ft | 329 kts | 91° |
| 2026-05-05 14:45 | 44.71353 | 25.88049 | 7435 ft | 327 kts | 92° |
| 2026-05-05 14:45 | 44.71182 | 25.91217 | 7083 ft | 325 kts | 92° |
| 2026-05-05 14:45 | 44.71009 | 25.94398 | 7020 ft | 327 kts | 92° |
| 2026-05-05 14:45 | 44.70836 | 25.97571 | 7017 ft | 328 kts | 92° |
| 2026-05-05 14:46 | 44.70658 | 26.00807 | 7002 ft | 330 kts | 92° |
| 2026-05-05 14:46 | 44.70480 | 26.04015 | 6888 ft | 329 kts | 93° |
| 2026-05-05 14:46 | 44.70303 | 26.07184 | 6728 ft | 321 kts | 93° |
| 2026-05-05 14:46 | 44.70132 | 26.10246 | 6603 ft | 308 kts | 93° |
| 2026-05-05 14:47 | 44.69967 | 26.13186 | 6460 ft | 298 kts | 93° |
| 2026-05-05 14:47 | 44.69807 | 26.16031 | 6090 ft | 289 kts | 93° |
| 2026-05-05 14:47 | 44.69651 | 26.18770 | 5690 ft | 276 kts | 92° |
| 2026-05-05 14:47 | 44.69501 | 26.21421 | 5291 ft | 266 kts | 92° |
| 2026-05-05 14:48 | 44.69356 | 26.23991 | 4902 ft | 264 kts | 92° |
| 2026-05-05 14:48 | 44.69211 | 26.26545 | 4516 ft | 262 kts | 93° |
| 2026-05-05 14:48 | 44.69067 | 26.29075 | 4128 ft | 261 kts | 93° |
| 2026-05-05 14:48 | 44.68922 | 26.31602 | 3742 ft | 261 kts | 93° |
| 2026-05-05 14:49 | 44.68698 | 26.34167 | 3344 ft | 264 kts | 105° |
| 2026-05-05 14:49 | 44.67806 | 26.36396 | 2950 ft | 268 kts | 133° |
| 2026-05-05 14:49 | 44.66237 | 26.37794 | 2583 ft | 270 kts | 162° |
| 2026-05-05 14:49 | 44.64425 | 26.38229 | 2489 ft | 260 kts | 174° |
| 2026-05-05 14:50 | 44.62668 | 26.38420 | 2493 ft | 247 kts | 175° |
| 2026-05-05 14:50 | 44.61000 | 26.38558 | 2495 ft | 234 kts | 176° |
| 2026-05-05 14:50 | 44.59425 | 26.38270 | 2482 ft | 222 kts | 204° |
| 2026-05-05 14:50 | 44.58292 | 26.36938 | 2489 ft | 211 kts | 239° |
| 2026-05-05 14:51 | 44.57931 | 26.35045 | 2517 ft | 197 kts | 271° |
| 2026-05-05 14:51 | 44.58043 | 26.33213 | 2539 ft | 182 kts | 275° |
| 2026-05-05 14:51 | 44.58105 | 26.31459 | 2504 ft | 181 kts | 270° |
| 2026-05-05 14:51 | 44.58080 | 26.29700 | 2484 ft | 181 kts | 268° |
| 2026-05-05 14:52 | 44.58007 | 26.27941 | 2298 ft | 180 kts | 265° |
| 2026-05-05 14:52 | 44.57893 | 26.26242 | 2081 ft | 171 kts | 264° |
| 2026-05-05 14:52 | 44.57770 | 26.24653 | 1909 ft | 157 kts | 263° |
| 2026-05-05 14:52 | 44.57653 | 26.23192 | 1703 ft | 144 kts | 263° |
| 2026-05-05 14:53 | 44.57549 | 26.21828 | 1528 ft | 138 kts | 263° |
| 2026-05-05 14:53 | 44.57447 | 26.20496 | 1375 ft | 137 kts | 263° |
| 2026-05-05 14:53 | 44.57345 | 26.19175 | 1219 ft | 136 kts | 263° |
| 2026-05-05 14:53 | 44.57244 | 26.17859 | 1060 ft | 134 kts | 262° |
| 2026-05-05 14:54 | 44.57143 | 26.16557 | 898 ft | 133 kts | 262° |
| 2026-05-05 14:54 | 44.57046 | 26.15277 | 736 ft | 132 kts | 262° |
| 2026-05-05 14:54 | 44.56948 | 26.14009 | 593 ft | 131 kts | 263° |
| 2026-05-05 14:54 | 44.56849 | 26.12732 | 441 ft | 131 kts | 263° |
| 2026-05-05 14:55 | 44.56757 | 26.11455 | 321 ft | 130 kts | 263° |
| 2026-05-05 14:55 | 44.56676 | 26.10427 | 318 ft | 73 kts | 263° |
| 2026-05-05 14:55 | 44.56625 | 26.09752 | 318 ft | 64 kts | 262° |
| 2026-05-05 14:55 | 44.56576 | 26.09132 | 318 ft | 66 kts | 265° |
| 2026-05-05 14:56 | 44.56576 | 26.08686 | 318 ft | 36 kts | 303° |
| 2026-05-05 14:56 | 44.56787 | 26.08568 | 318 ft | 25 kts | 352° |
| 2026-05-05 14:56 | 44.56852 | 26.08557 | 318 ft | 0 kts | 356° |
| 2026-05-05 14:56 | 44.56894 | 26.08558 | 318 ft | 14 kts | 14° |
| 2026-05-05 14:57 | 44.56931 | 26.08687 | 318 ft | 14 kts | 95° |
| 2026-05-05 14:57 | 44.56873 | 26.08719 | 318 ft | 9 kts | 175° |
| 2026-05-05 14:57 | 44.56862 | 26.08720 | 318 ft | 0 kts | 175° |